Time;durP1;ratioP1;P1;durP2;ratioP2;P2;SDS_P1;SDS_P2;PMS_P1;PMS_P2;Temp;Humidity;BMP_temperature;BMP_pressure;BME280_temperature;BME280_humidity;BME280_pressure;Samples;Min_cycle;Max_cycle;Signal;HPM_P1;HPM_P2
2022/10/18 00:00:12;;;;;;;18.60;12.90;;;;;;;5.24;100.00;98911.96;107739;1266;69066;-82
2022/10/18 00:03:03;;;;;;;27.10;17.20;;;;;;;5.25;100.00;98912.65;108011;1263;69159;-81
2022/10/18 00:05:34;;;;;;;23.40;14.10;;;;;;;5.28;100.00;98912.91;107735;1265;58936;-82
2022/10/18 00:08:04;;;;;;;16.20;8.90;;;;;;;5.29;100.00;98910.80;107886;1260;58982;-82
2022/10/18 00:10:35;;;;;;;21.50;14.30;;;;;;;5.30;99.88;98909.04;107692;1267;70728;-81
2022/10/18 00:13:05;;;;;;;27.10;15.50;;;;;;;5.31;99.90;98907.80;107832;1266;68453;-81
2022/10/18 00:15:35;;;;;;;26.90;16.40;;;;;;;5.32;100.00;98905.70;107919;1260;69228;-81
2022/10/18 00:18:06;;;;;;;18.90;11.60;;;;;;;5.32;100.00;98907.08;107807;1266;58898;-81
2022/10/18 00:20:39;;;;;;;17.40;11.60;;;;;;;5.30;100.00;98904.37;107819;1265;58870;-81
2022/10/18 00:23:12;;;;;;;21.10;14.50;;;;;;;5.27;100.00;98903.59;107690;1267;70570;-81
2022/10/18 00:25:42;;;;;;;21.10;13.90;;;;;;;5.20;100.00;98902.05;107924;1266;69088;-81
2022/10/18 00:28:14;;;;;;;20.10;14.20;;;;;;;5.15;100.00;98902.04;107863;1263;69261;-81
2022/10/18 00:30:44;;;;;;;22.30;14.40;;;;;;;5.09;100.00;98899.58;107940;1267;59211;-81
2022/10/18 00:33:15;;;;;;;21.10;14.50;;;;;;;5.06;100.00;98902.07;107871;1263;59219;-81
2022/10/18 00:35:45;;;;;;;;;;;;;;;5.06;100.00;98894.98;107951;1259;70570;-82
2022/10/18 00:38:14;;;;;;;20.20;13.20;;;;;;;5.06;100.00;98891.89;107926;1265;69214;-80
2022/10/18 00:40:43;;;;;;;15.80;11.20;;;;;;;5.06;100.00;98893.27;107786;1266;69069;-81
2022/10/18 00:43:17;;;;;;;16.50;12.70;;;;;;;5.05;100.00;98889.66;107928;1267;58971;-82
2022/10/18 00:45:49;;;;;;;21.50;15.10;;;;;;;5.03;100.00;98888.86;108208;1267;58854;-82
2022/10/18 00:48:21;;;;;;;19.50;14.00;;;;;;;5.02;100.00;98889.59;107746;1265;68929;-78
2022/10/18 00:50:53;;;;;;;17.80;11.70;;;;;;;5.02;100.00;98888.71;107807;1265;68371;-82
2022/10/18 00:53:22;;;;;;;29.50;15.00;;;;;;;5.01;100.00;98890.63;107953;1265;69071;-82
2022/10/18 00:55:52;;;;;;;23.00;14.90;;;;;;;5.03;100.00;98890.23;107833;1267;59030;-82
2022/10/18 00:58:22;;;;;;;20.00;14.50;;;;;;;5.02;100.00;98886.48;107827;1265;58863;-77
2022/10/18 01:00:52;;;;;;;23.20;14.60;;;;;;;5.02;100.00;98882.48;107749;1263;70696;-83
2022/10/18 01:03:23;;;;;;;31.40;19.20;;;;;;;4.97;100.00;98879.86;107856;1265;69087;-83
2022/10/18 01:05:52;;;;;;;;;;;;;;;4.89;100.00;98875.06;107794;1266;68544;-83
2022/10/18 01:08:32;;;;;;;22.70;14.80;;;;;;;4.84;100.00;98872.61;107784;1265;58965;-83
2022/10/18 01:11:50;;;;;;;26.60;17.40;;;;;;;4.76;100.00;98871.95;107884;1267;58954;-83
2022/10/18 01:15:01;;;;;;;26.30;16.60;;;;;;;4.62;100.00;98871.45;107890;1267;70578;-83
2022/10/18 01:17:39;;;;;;;23.50;16.50;;;;;;;4.54;100.00;98869.41;108104;1266;67836;-83
2022/10/18 01:20:28;;;;;;;26.60;15.70;;;;;;;4.51;100.00;98865.16;107972;1265;69208;-83
2022/10/18 01:23:07;;;;;;;21.80;13.50;;;;;;;4.47;100.00;98861.30;107880;1262;58865;-83
2022/10/18 01:26:16;;;;;;;21.90;15.10;;;;;;;4.43;100.00;98857.77;107947;1267;59008;-83
2022/10/18 01:29:04;;;;;;;23.40;13.70;;;;;;;4.40;100.00;98856.30;107929;1266;70213;-83
2022/10/18 01:32:03;;;;;;;18.40;12.40;;;;;;;4.41;100.00;98849.04;107844;1262;69247;-83
2022/10/18 01:34:36;;;;;;;21.20;14.10;;;;;;;4.42;100.00;98848.14;107606;1269;69298;-83
2022/10/18 01:37:12;;;;;;;23.80;17.40;;;;;;;4.43;100.00;98851.20;107838;1267;58934;-82
2022/10/18 01:39:46;;;;;;;23.90;15.70;;;;;;;4.44;100.00;98850.52;107829;1266;58940;-83
2022/10/18 01:42:19;;;;;;;19.50;14.20;;;;;;;4.46;100.00;98848.91;107851;1265;69884;-83
2022/10/18 01:44:52;;;;;;;18.50;12.20;;;;;;;4.46;100.00;98846.32;107831;1267;68214;-83
2022/10/18 01:47:26;;;;;;;24.30;15.50;;;;;;;4.47;100.00;98844.20;107867;1268;69237;-83
2022/10/18 01:50:04;;;;;;;17.00;10.20;;;;;;;4.45;100.00;98840.98;107839;1270;58979;-83
2022/10/18 01:52:35;;;;;;;19.70;13.10;;;;;;;4.41;100.00;98837.82;107878;1266;58921;-83
2022/10/18 01:55:06;;;;;;;17.80;11.80;;;;;;;4.39;100.00;98834.77;107907;1269;69905;-83
2022/10/18 01:57:45;;;;;;;20.10;12.90;;;;;;;4.37;100.00;98835.15;107872;1269;69136;-83
2022/10/18 02:00:35;;;;;;;19.80;13.00;;;;;;;4.35;100.00;98832.27;107907;1263;70012;-83
2022/10/18 02:03:20;;;;;;;16.30;10.60;;;;;;;4.33;100.00;98830.06;107834;1266;58928;-82
2022/10/18 02:06:18;;;;;;;21.80;13.80;;;;;;;4.32;100.00;98827.33;107968;1265;58963;-82
2022/10/18 02:09:27;;;;;;;22.10;14.90;;;;;;;4.32;100.00;98827.69;108208;1260;70453;-81
2022/10/18 02:12:01;;;;;;;21.50;14.20;;;;;;;4.28;100.00;98823.98;107929;1267;68446;-81
2022/10/18 02:14:33;;;;;;;18.00;13.00;;;;;;;4.25;100.00;98828.88;108020;1267;69234;-82
2022/10/18 02:17:08;;;;;;;16.10;12.00;;;;;;;4.25;100.00;98827.52;107682;1263;58930;-82
2022/10/18 02:19:48;;;;;;;15.80;11.70;;;;;;;4.27;100.00;98830.41;107676;1269;58896;-82
2022/10/18 02:22:25;;;;;;;20.70;13.70;;;;;;;4.31;100.00;98832.36;107869;1265;70494;-82
2022/10/18 02:25:01;;;;;;;16.90;11.20;;;;;;;4.33;100.00;98829.02;107791;1267;69021;-82
2022/10/18 02:27:32;;;;;;;17.60;12.80;;;;;;;4.33;100.00;98824.70;107717;1266;68655;-82
2022/10/18 02:30:02;;;;;;;19.80;13.40;;;;;;;4.33;100.00;98821.59;107844;1265;58975;-83
2022/10/18 02:33:00;;;;;;;19.10;12.60;;;;;;;4.32;100.00;98822.33;107912;1265;58893;-83
2022/10/18 02:35:35;;;;;;;22.70;14.60;;;;;;;4.26;100.00;98823.02;107769;1269;69891;-82
2022/10/18 02:38:09;;;;;;;13.50;9.10;;;;;;;4.18;100.00;98822.33;107816;1265;68351;-82
2022/10/18 02:40:39;;;;;;;15.50;11.50;;;;;;;4.15;100.00;98823.45;107871;1269;69147;-83
2022/10/18 02:43:09;;;;;;;15.40;11.50;;;;;;;4.14;100.00;98823.63;107790;1267;59420;-81
2022/10/18 02:45:38;;;;;;;17.40;11.90;;;;;;;4.14;100.00;98820.02;107666;1266;58885;-82
2022/10/18 02:48:09;;;;;;;13.90;10.90;;;;;;;4.15;100.00;98819.82;107668;1262;69798;-82
2022/10/18 02:50:39;;;;;;;16.90;11.70;;;;;;;4.15;100.00;98814.30;107659;1266;69151;-82
2022/10/18 02:53:09;;;;;;;17.90;11.50;;;;;;;4.14;100.00;98812.59;107855;1268;67609;-82
2022/10/18 02:55:40;;;;;;;15.00;9.40;;;;;;;4.15;100.00;98810.16;107776;1267;58959;-82
2022/10/18 02:58:09;;;;;;;15.20;10.40;;;;;;;4.15;100.00;98809.27;107773;1267;58904;-82
2022/10/18 03:00:38;;;;;;;16.90;10.50;;;;;;;4.16;100.00;98812.37;107772;1267;71373;-82
2022/10/18 03:03:08;;;;;;;18.10;12.70;;;;;;;4.15;100.00;98806.36;107734;1265;69362;-82
2022/10/18 03:05:37;;;;;;;15.70;9.90;;;;;;;4.14;100.00;98808.61;107862;1263;69180;-82
2022/10/18 03:08:07;;;;;;;18.60;12.20;;;;;;;4.14;100.00;98805.19;107721;1268;58926;-82
2022/10/18 03:10:37;;;;;;;18.20;12.30;;;;;;;4.15;100.00;98808.25;107901;1264;58839;-82
2022/10/18 03:13:06;;;;;;;15.00;11.10;;;;;;;4.17;100.00;98806.84;107777;1267;70591;-82
2022/10/18 03:15:35;;;;;;;21.60;12.80;;;;;;;4.19;100.00;98811.77;107802;1266;67655;-82
2022/10/18 03:18:05;;;;;;;14.80;9.10;;;;;;;4.26;100.00;98813.67;107660;1264;69818;-82
2022/10/18 03:20:34;;;;;;;25.40;16.10;;;;;;;4.33;100.00;98811.10;107791;1269;58968;-82
2022/10/18 03:23:04;;;;;;;18.50;12.50;;;;;;;4.32;100.00;98811.63;107771;1268;58977;-82
2022/10/18 03:25:34;;;;;;;18.80;12.00;;;;;;;4.23;100.00;98806.50;107790;1263;70566;-81
2022/10/18 03:28:03;;;;;;;18.30;11.70;;;;;;;4.14;100.00;98804.48;107923;1266;67464;-82
2022/10/18 03:30:32;;;;;;;17.00;10.00;;;;;;;4.06;100.00;98807.78;107796;1265;69239;-82
2022/10/18 03:33:01;;;;;;;13.60;9.60;;;;;;;3.98;100.00;98807.48;107793;1267;58897;-82
2022/10/18 03:35:30;;;;;;;17.40;11.80;;;;;;;3.88;100.00;98805.63;107641;1269;58919;-82
2022/10/18 03:38:00;;;;;;;20.20;14.50;;;;;;;3.78;100.00;98804.32;107965;1266;69445;-82
2022/10/18 03:40:29;;;;;;;16.50;12.40;;;;;;;3.68;100.00;98804.72;107873;1268;69943;-82
2022/10/18 03:42:59;;;;;;;21.90;15.20;;;;;;;3.62;100.00;98803.83;107733;1267;69382;-82
2022/10/18 03:45:28;;;;;;;25.60;15.20;;;;;;;3.53;100.00;98802.48;107894;1263;59288;-82
2022/10/18 03:47:59;;;;;;;30.90;20.80;;;;;;;3.49;100.00;98801.52;107837;1265;58859;-82
2022/10/18 03:50:28;;;;;;;25.80;17.70;;;;;;;3.46;100.00;98803.31;107948;1268;70660;-82
2022/10/18 03:52:58;;;;;;;25.20;14.60;;;;;;;3.45;100.00;98799.20;107887;1267;69160;-82
2022/10/18 03:55:27;;;;;;;22.50;14.80;;;;;;;3.46;100.00;98800.55;107926;1267;68288;-82
2022/10/18 03:57:57;;;;;;;22.10;14.00;;;;;;;3.48;100.00;98801.73;107743;1266;58984;-82
2022/10/18 04:00:26;;;;;;;19.50;13.90;;;;;;;3.49;100.00;98800.15;107725;1268;58981;-82
2022/10/18 04:02:55;;;;;;;22.50;15.80;;;;;;;3.50;100.00;98798.73;107903;1265;68956;-81
2022/10/18 04:05:26;;;;;;;26.30;13.70;;;;;;;3.52;100.00;98796.11;107747;1269;69289;-81
2022/10/18 04:07:55;;;;;;;25.50;13.60;;;;;;;3.55;100.00;98796.05;107705;1269;69929;-82
2022/10/18 04:10:25;;;;;;;20.00;11.10;;;;;;;3.58;100.00;98796.66;107389;1269;552300;-81
2022/10/18 04:12:53;;;;;;;17.30;11.40;;;;;;;3.60;100.00;98795.59;107856;1269;58973;-82
2022/10/18 04:15:22;;;;;;;28.50;16.00;;;;;;;3.61;100.00;98791.27;107512;1269;70326;-82
2022/10/18 04:17:52;;;;;;;22.20;13.60;;;;;;;3.58;100.00;98789.95;107819;1269;69216;-82
2022/10/18 04:20:20;;;;;;;24.40;14.10;;;;;;;3.55;100.00;98791.04;107823;1269;69320;-82
2022/10/18 04:22:51;;;;;;;24.70;14.60;;;;;;;3.52;100.00;98790.58;107731;1268;58956;-83
2022/10/18 04:25:21;;;;;;;24.30;13.40;;;;;;;3.49;100.00;98788.09;107785;1267;58906;-83
2022/10/18 04:27:50;;;;;;;39.20;17.00;;;;;;;3.44;100.00;98790.09;107832;1266;70599;-81
2022/10/18 04:30:20;;;;;;;92.60;19.10;;;;;;;3.34;100.00;98793.05;107791;1268;68994;-81
2022/10/18 04:32:49;;;;;;;20.20;11.60;;;;;;;3.23;100.00;98790.54;107851;1267;70318;-81
2022/10/18 04:35:23;;;;;;;32.40;14.80;;;;;;;3.13;100.00;98788.53;107805;1259;58951;-81
2022/10/18 04:37:52;;;;;;;32.20;14.30;;;;;;;3.03;100.00;98787.51;107743;1265;59061;-81
2022/10/18 04:40:21;;;;;;;26.50;14.40;;;;;;;2.97;100.00;98784.71;107676;1263;70131;-81
2022/10/18 04:42:51;;;;;;;16.20;12.10;;;;;;;2.94;100.00;98784.95;107790;1269;68233;-81
2022/10/18 04:45:20;;;;;;;19.90;12.60;;;;;;;2.93;100.00;98784.46;107615;1265;68495;-81
2022/10/18 04:47:50;;;;;;;17.90;12.40;;;;;;;2.92;100.00;98779.49;107865;1267;58920;-81
2022/10/18 04:50:19;;;;;;;18.80;12.70;;;;;;;2.91;100.00;98780.71;107711;1265;58936;-82
2022/10/18 04:52:48;;;;;;;16.60;11.90;;;;;;;2.91;100.00;98780.88;107742;1269;69616;-80
2022/10/18 04:55:22;;;;;;;19.00;11.80;;;;;;;2.92;100.00;98784.14;107783;1264;69975;-81
2022/10/18 04:57:52;;;;;;;19.30;13.00;;;;;;;2.93;100.00;98789.97;107826;1265;69352;-82
2022/10/18 05:00:21;;;;;;;20.30;14.00;;;;;;;2.93;100.00;98789.79;107790;1270;58902;-82
2022/10/18 05:02:56;;;;;;;16.20;9.90;;;;;;;2.95;100.00;98791.81;107871;1267;59452;-81
2022/10/18 05:05:25;;;;;;;19.90;15.10;;;;;;;2.96;100.00;98790.76;107659;1267;69847;-82
2022/10/18 05:08:15;;;;;;;19.50;14.10;;;;;;;3.01;100.00;98789.79;107891;1269;69046;-81
2022/10/18 05:10:44;;;;;;;24.90;17.30;;;;;;;3.06;100.00;98786.93;107759;1268;69969;-79
2022/10/18 05:13:13;;;;;;;23.20;16.20;;;;;;;3.11;100.00;98790.81;107611;1269;58950;-80
2022/10/18 05:15:41;;;;;;;23.20;15.60;;;;;;;3.13;100.00;98790.94;107666;1268;58888;-80
2022/10/18 05:18:10;;;;;;;22.50;14.80;;;;;;;3.16;100.00;98793.27;107640;1268;70188;-80
2022/10/18 05:20:39;;;;;;;19.20;13.90;;;;;;;3.20;100.00;98795.09;107704;1264;68351;-82
2022/10/18 05:23:09;;;;;;;18.60;13.30;;;;;;;3.26;100.00;98792.20;107886;1267;69303;-82
2022/10/18 05:25:40;;;;;;;18.00;12.30;;;;;;;3.36;100.00;98794.92;107890;1267;58959;-80
2022/10/18 05:28:10;;;;;;;20.20;13.40;;;;;;;3.45;100.00;98793.33;107847;1265;58919;-82
2022/10/18 05:31:06;;;;;;;23.40;15.90;;;;;;;3.52;100.00;98790.75;107739;1267;70643;-80
2022/10/18 05:33:35;;;;;;;19.90;14.30;;;;;;;3.60;100.00;98791.12;107702;1267;69179;-75
2022/10/18 05:36:05;;;;;;;17.80;12.20;;;;;;;3.71;100.00;98789.66;107722;1269;69137;-82
2022/10/18 05:38:33;;;;;;;19.00;14.50;;;;;;;3.84;100.00;98794.34;107812;1259;58942;-81
2022/10/18 05:41:04;;;;;;;26.50;16.90;;;;;;;3.99;100.00;98793.30;107741;1268;58985;-81
2022/10/18 05:43:33;;;;;;;22.60;15.30;;;;;;;4.14;100.00;98793.09;108115;1267;70646;-81
2022/10/18 05:46:04;;;;;;;24.90;16.60;;;;;;;4.27;100.00;98794.16;107657;1269;68194;-82
2022/10/18 05:48:36;;;;;;;18.20;14.00;;;;;;;4.41;100.00;98793.63;107862;1268;70084;-80
2022/10/18 05:51:05;;;;;;;25.90;18.70;;;;;;;4.54;100.00;98792.73;107933;1263;58949;-80
2022/10/18 05:53:34;;;;;;;25.40;19.20;;;;;;;4.61;100.00;98798.95;107708;1267;58965;-80
2022/10/18 05:56:06;;;;;;;26.90;19.90;;;;;;;4.71;100.00;98798.20;107853;1265;71412;-81
2022/10/18 05:58:35;;;;;;;29.80;21.80;;;;;;;4.83;100.00;98796.29;107984;1269;69037;-81
2022/10/18 06:01:05;;;;;;;33.60;22.70;;;;;;;4.96;100.00;98795.94;107923;1266;69301;-81
2022/10/18 06:03:34;;;;;;;22.70;18.30;;;;;;;5.17;100.00;98797.06;107808;1267;58980;-81
2022/10/18 06:06:05;;;;;;;20.70;14.00;;;;;;;5.35;100.00;98803.45;107785;1269;58896;-80
2022/10/18 06:08:35;;;;;;;16.70;12.10;;;;;;;5.52;99.80;98802.76;107929;1265;71248;-81
2022/10/18 06:11:08;;;;;;;19.30;16.20;;;;;;;5.71;98.90;98807.37;107848;1269;69514;-81
2022/10/18 06:13:49;;;;;;;24.90;18.70;;;;;;;5.92;97.50;98805.88;107936;1270;68386;-81
2022/10/18 06:16:20;;;;;;;23.70;17.50;;;;;;;6.16;95.86;98807.70;107767;1267;58930;-80
2022/10/18 06:18:54;;;;;;;25.80;18.30;;;;;;;6.38;94.60;98808.36;107997;1267;58897;-85
2022/10/18 06:21:24;;;;;;;28.60;18.50;;;;;;;6.51;93.02;98810.69;107811;1269;71262;-84
2022/10/18 06:23:53;;;;;;;;;;;;;;;6.79;92.32;98809.02;107709;1266;69850;-83
2022/10/18 06:26:23;;;;;;;26.80;19.10;;;;;;;6.99;91.36;98807.94;107652;1266;69131;-84
2022/10/18 06:28:51;;;;;;;26.40;18.40;;;;;;;7.18;90.73;98804.50;107700;1268;58922;-81
2022/10/18 06:31:20;;;;;;;28.50;19.90;;;;;;;7.60;89.05;98801.70;107823;1269;58863;-81
2022/10/18 06:33:49;;;;;;;19.70;15.30;;;;;;;7.99;87.67;98804.83;107942;1269;71462;-80
2022/10/18 06:36:22;;;;;;;19.60;16.80;;;;;;;8.34;86.90;98801.48;107649;1265;69300;-80
2022/10/18 06:38:52;;;;;;;13.00;10.00;;;;;;;8.81;87.18;98797.42;107898;1269;68465;-81
2022/10/18 06:41:23;;;;;;;11.00;9.20;;;;;;;9.46;88.35;98796.92;107891;1269;59414;-82
2022/10/18 06:43:55;;;;;;;10.20;8.40;;;;;;;9.98;84.17;98797.23;108023;1263;58970;-80
2022/10/18 06:46:25;;;;;;;11.40;10.20;;;;;;;10.63;85.50;98795.09;107773;1269;70431;-82
2022/10/18 06:48:54;;;;;;;12.40;11.10;;;;;;;11.16;80.60;98790.79;107910;1268;69247;-81
2022/10/18 06:51:22;;;;;;;11.20;10.10;;;;;;;11.47;77.46;98790.52;108554;1266;69359;-80
2022/10/18 06:53:51;;;;;;;11.10;10.00;;;;;;;12.03;77.32;98789.47;107892;1268;58892;-80
2022/10/18 06:56:39;;;;;;;11.60;10.50;;;;;;;12.59;74.74;98787.50;107848;1267;58991;-80
2022/10/18 06:59:08;;;;;;;12.50;11.20;;;;;;;13.01;73.72;98781.66;107831;1269;71007;-79
2022/10/18 07:01:39;;;;;;;13.10;11.40;;;;;;;13.27;71.58;98782.36;107796;1263;68182;-80
2022/10/18 07:04:08;;;;;;;11.70;10.60;;;;;;;13.40;67.64;98781.70;107737;1269;68472;-80
2022/10/18 07:06:37;;;;;;;14.90;13.30;;;;;;;13.77;65.89;98785.31;107940;1266;58964;-79
2022/10/18 07:09:06;;;;;;;14.90;13.30;;;;;;;13.73;65.35;98783.97;107999;1267;58964;-77
2022/10/18 07:23:57;;;;;;;10.40;9.40;;;;;;;14.33;63.27;98773.20;105179;1287;610138;-76
2022/10/18 07:26:30;;;;;;;9.60;8.50;;;;;;;14.62;62.24;98767.48;106723;1282;256335;-78
2022/10/18 07:29:05;;;;;;;11.70;10.30;;;;;;;14.83;62.28;98767.09;106990;1275;57636;-79
2022/10/18 07:31:34;;;;;;;9.70;8.80;;;;;;;15.27;60.85;98764.73;107436;1274;68367;-77
2022/10/18 07:34:05;;;;;;;9.60;8.50;;;;;;;15.33;61.17;98759.71;107483;1272;69262;-77
2022/10/18 07:36:33;;;;;;;9.60;8.00;;;;;;;16.25;59.28;98760.27;107479;1273;68296;-77
2022/10/18 07:39:03;;;;;;;10.20;8.90;;;;;;;16.49;58.30;98755.81;107345;1275;57731;-76
2022/10/18 07:41:32;;;;;;;9.60;8.70;;;;;;;16.60;57.33;98757.48;107370;1267;57703;-77
2022/10/18 07:44:02;;;;;;;;;;;;;;;16.27;57.38;98755.22;107491;1272;67999;-77
2022/10/18 07:46:30;;;;;;;;;;;;;;;16.73;56.26;98752.40;107463;1274;69176;-77
2022/10/18 07:48:59;;;;;;;9.00;7.50;;;;;;;17.04;55.91;98750.42;107446;1274;68324;-77
2022/10/18 07:51:31;;;;;;;9.10;8.20;;;;;;;17.25;55.59;98749.98;107281;1275;58168;-76
2022/10/18 07:54:00;;;;;;;8.70;7.80;;;;;;;17.47;54.77;98751.89;107476;1273;58160;-77
2022/10/18 07:56:29;;;;;;;8.80;7.40;;;;;;;17.74;54.20;98749.58;107368;1275;68883;-77
2022/10/18 07:58:57;;;;;;;8.30;7.30;;;;;;;17.67;53.91;98745.01;107625;1275;68946;-76
2022/10/18 08:01:26;;;;;;;9.10;7.60;;;;;;;18.54;54.46;98740.48;107307;1274;69290;-74
2022/10/18 08:03:55;;;;;;;9.60;8.20;;;;;;;19.05;51.73;98735.28;107496;1275;58124;-77
2022/10/18 08:06:23;;;;;;;9.80;8.30;;;;;;;19.24;49.79;98735.20;107462;1273;58089;-77
2022/10/18 08:08:52;;;;;;;8.80;7.60;;;;;;;19.51;49.05;98736.92;107443;1275;70463;-77
2022/10/18 08:11:23;;;;;;;9.90;8.80;;;;;;;19.43;49.09;98738.30;107521;1274;69719;-76
2022/10/18 08:13:53;;;;;;;10.20;8.50;;;;;;;19.35;49.29;98735.86;107491;1273;69313;-74
2022/10/18 08:16:30;;;;;;;11.40;9.00;;;;;;;18.99;49.69;98734.71;107427;1274;58163;-76
2022/10/18 08:18:59;;;;;;;10.80;8.80;;;;;;;19.06;49.58;98730.79;107488;1271;58149;-77
2022/10/18 08:21:28;;;;;;;10.20;9.20;;;;;;;19.49;49.06;98725.96;107472;1271;69738;-76
2022/10/18 08:23:57;;;;;;;11.60;8.70;;;;;;;19.37;48.73;98727.84;107516;1274;69215;-77
2022/10/18 08:26:25;;;;;;;8.70;7.50;;;;;;;19.43;48.83;98726.11;107497;1273;69230;-77
2022/10/18 08:28:54;;;;;;;10.80;8.70;;;;;;;19.69;47.98;98723.83;107522;1274;58180;-77
2022/10/18 08:31:43;;;;;;;9.00;7.10;;;;;;;19.45;46.09;98724.88;107547;1274;58531;-78
2022/10/18 08:34:12;;;;;;;7.40;6.70;;;;;;;20.07;45.80;98722.15;107473;1273;69007;-77
2022/10/18 08:36:46;;;;;;;7.90;6.40;;;;;;;20.08;45.57;98720.34;107411;1273;68416;-77
2022/10/18 08:39:15;;;;;;;7.80;7.00;;;;;;;20.63;43.95;98715.27;107454;1269;70030;-77
2022/10/18 08:41:49;;;;;;;7.60;6.80;;;;;;;20.29;43.81;98717.16;107464;1273;58091;-78
2022/10/18 08:44:31;;;;;;;7.10;6.40;;;;;;;20.43;43.35;98712.73;107455;1274;58093;-76
2022/10/18 08:47:09;;;;;;;8.00;6.90;;;;;;;21.14;42.04;98711.83;107431;1268;69235;-78
2022/10/18 08:49:49;;;;;;;8.80;7.90;;;;;;;20.59;42.42;98705.05;107507;1270;69275;-75
2022/10/18 08:52:37;;;;;;;8.80;6.90;;;;;;;20.87;42.51;98705.02;107627;1269;69553;-78
2022/10/18 08:55:23;;;;;;;9.30;7.50;;;;;;;21.51;42.03;98699.76;107545;1273;58130;-77
2022/10/18 08:57:52;;;;;;;7.80;7.00;;;;;;;22.15;41.55;98697.86;107549;1270;58125;-77
2022/10/18 09:00:23;;;;;;;8.10;6.40;;;;;;;22.55;40.53;98692.63;107486;1274;69768;-77
2022/10/18 09:03:13;;;;;;;9.80;8.20;;;;;;;22.22;40.30;98693.14;107495;1274;69957;-76
2022/10/18 09:06:08;;;;;;;8.90;7.00;;;;;;;22.26;40.09;98692.20;107458;1271;70357;-77
2022/10/18 09:09:23;;;;;;;9.80;8.00;;;;;;;22.79;39.14;98683.39;107541;1273;58174;-75
2022/10/18 09:12:25;;;;;;;7.60;6.80;;;;;;;22.23;40.89;98682.20;107308;1275;58127;-77
2022/10/18 09:15:05;;;;;;;9.10;6.90;;;;;;;22.59;39.84;98673.33;107390;1275;69760;-77
2022/10/18 09:17:46;;;;;;;10.20;8.60;;;;;;;23.37;39.07;98672.80;107658;1268;69212;-77
2022/10/18 09:20:23;;;;;;;7.50;6.70;;;;;;;24.14;36.50;98661.96;107739;1268;69332;-76
2022/10/18 09:23:19;;;;;;;8.20;6.80;;;;;;;24.52;36.56;98662.25;107729;1268;58102;-76
2022/10/18 09:25:59;;;;;;;7.30;6.60;;;;;;;24.82;35.71;98656.11;107684;1269;58092;-76
2022/10/18 09:28:58;;;;;;;9.50;6.80;;;;;;;24.90;34.43;98651.74;107761;1269;69989;-76
2022/10/18 09:31:33;;;;;;;9.10;8.20;;;;;;;25.68;33.82;98653.81;107761;1268;69299;-76
2022/10/18 09:34:11;;;;;;;7.80;6.90;;;;;;;24.97;33.56;98644.66;107767;1268;69486;-76
2022/10/18 09:36:40;;;;;;;8.20;5.80;;;;;;;25.06;32.81;98643.38;107712;1268;58068;-76
2022/10/18 09:39:21;;;;;;;7.40;6.60;;;;;;;25.24;33.04;98637.38;107799;1268;58125;-76
2022/10/18 09:41:56;;;;;;;8.40;6.70;;;;;;;24.50;33.65;98633.47;107763;1268;69864;-76
2022/10/18 09:44:35;;;;;;;6.60;6.00;;;;;;;24.71;33.64;98633.92;107791;1268;69286;-76
2022/10/18 09:47:29;;;;;;;8.40;6.90;;;;;;;24.74;32.70;98629.67;107765;1269;69303;-75
2022/10/18 09:50:22;;;;;;;8.60;7.00;;;;;;;25.11;33.47;98627.71;107745;1271;58093;-76
2022/10/18 09:53:17;;;;;;;8.00;6.60;;;;;;;24.96;33.47;98624.21;107807;1266;58105;-76
2022/10/18 09:56:09;;;;;;;7.90;6.50;;;;;;;24.89;34.08;98619.65;107753;1268;70437;-76
2022/10/18 09:58:47;;;;;;;7.50;6.40;;;;;;;25.76;32.79;98620.55;107583;1265;67785;-76
2022/10/18 10:01:21;;;;;;;11.90;8.40;;;;;;;26.13;32.69;98615.77;107719;1272;69221;-76
2022/10/18 10:03:50;;;;;;;8.50;7.50;;;;;;;25.75;32.43;98614.62;107592;1270;58132;-74
2022/10/18 10:06:33;;;;;;;9.50;8.10;;;;;;;25.26;33.48;98614.75;107710;1269;58193;-77
2022/10/18 10:09:16;;;;;;;9.30;8.10;;;;;;;26.67;32.14;98607.65;107745;1268;70456;-76
2022/10/18 10:11:50;;;;;;;8.80;6.70;;;;;;;26.15;31.96;98605.06;107792;1268;69873;-75
2022/10/18 10:14:26;;;;;;;7.00;6.10;;;;;;;26.41;31.87;98601.95;107735;1268;69105;-75
2022/10/18 10:16:56;;;;;;;6.60;5.90;;;;;;;27.22;30.04;98596.80;107764;1268;58151;-75
2022/10/18 10:19:36;;;;;;;8.20;6.20;;;;;;;27.85;29.89;98594.39;107745;1269;58134;-76
2022/10/18 10:22:09;;;;;;;7.20;6.50;;;;;;;28.09;29.09;98589.33;107738;1268;70508;-77
2022/10/18 10:24:52;;;;;;;7.30;6.60;;;;;;;27.65;29.51;98582.99;107798;1269;69322;-77
2022/10/18 10:27:29;;;;;;;6.60;5.30;;;;;;;27.96;29.34;98575.94;107745;1269;70171;-75
2022/10/18 10:30:01;;;;;;;6.30;5.00;;;;;;;29.12;28.14;98572.14;107756;1272;58156;-76
2022/10/18 10:32:46;;;;;;;5.60;4.70;;;;;;;30.02;26.21;98567.75;107730;1269;58073;-77
2022/10/18 10:35:39;;;;;;;9.20;6.30;;;;;;;30.34;26.50;98565.20;107789;1269;69384;-77
2022/10/18 10:38:28;;;;;;;7.20;5.90;;;;;;;30.03;26.41;98557.67;107756;1269;69236;-77
2022/10/18 10:40:57;;;;;;;6.30;5.50;;;;;;;30.52;25.48;98550.81;107782;1269;68376;-76
2022/10/18 10:43:30;;;;;;;5.80;5.30;;;;;;;30.47;25.60;98548.17;107743;1269;58557;-77
2022/10/18 10:46:13;;;;;;;6.70;5.80;;;;;;;30.85;26.35;98542.49;107766;1269;58095;-77
2022/10/18 10:48:46;;;;;;;8.60;6.60;;;;;;;31.20;25.26;98540.63;107570;1269;69813;-77
2022/10/18 10:51:27;;;;;;;7.00;6.30;;;;;;;30.20;25.64;98530.27;107769;1269;68470;-77
2022/10/18 10:54:14;;;;;;;6.30;5.70;;;;;;;28.94;26.96;98527.58;107753;1269;68497;-77
2022/10/18 10:57:01;;;;;;;9.80;8.80;;;;;;;29.63;27.35;98526.90;107627;1269;58104;-77
2022/10/18 10:59:41;;;;;;;9.10;8.20;;;;;;;28.43;29.08;98516.69;107776;1269;58092;-77
2022/10/18 11:02:12;;;;;;;9.40;7.80;;;;;;;29.16;27.84;98512.93;107762;1266;69889;-77
2022/10/18 11:04:41;;;;;;;9.60;8.10;;;;;;;28.94;28.52;98503.94;107758;1269;69651;-77
2022/10/18 11:07:27;;;;;;;12.90;10.90;;;;;;;29.73;27.46;98499.09;107778;1269;69796;-77
2022/10/18 11:10:08;;;;;;;13.70;11.20;;;;;;;29.25;27.63;98495.61;107616;1269;58185;-76
2022/10/18 11:12:46;;;;;;;10.50;9.30;;;;;;;28.21;28.93;98492.11;107799;1266;58147;-76
2022/10/18 11:15:31;;;;;;;9.20;8.20;;;;;;;28.48;29.41;98488.19;107767;1268;69821;-75
2022/10/18 11:18:00;;;;;;;12.70;11.30;;;;;;;28.74;28.88;98483.45;107796;1266;68454;-76
2022/10/18 11:20:31;;;;;;;;;;;;;;;29.49;27.53;98478.20;107746;1268;69514;-76
2022/10/18 11:23:16;;;;;;;12.00;9.20;;;;;;;28.34;28.62;98471.07;107737;1266;58141;-76
2022/10/18 11:25:59;;;;;;;12.60;10.60;;;;;;;28.16;29.37;98472.71;107796;1270;58182;-77
2022/10/18 11:28:49;;;;;;;11.10;10.00;;;;;;;28.85;28.43;98475.15;107673;1271;70220;-77
2022/10/18 11:31:38;;;;;;;11.40;9.20;;;;;;;29.37;27.88;98460.73;107601;1268;69823;-76
2022/10/18 11:34:36;;;;;;;12.50;11.20;;;;;;;28.63;27.48;98458.68;107769;1268;68506;-76
2022/10/18 11:37:06;;;;;;;11.00;8.30;;;;;;;28.48;28.39;98454.10;107783;1268;58172;-77
2022/10/18 11:40:00;;;;;;;13.20;10.30;;;;;;;28.60;28.06;98445.64;107808;1268;58144;-75
2022/10/18 11:42:32;;;;;;;10.30;9.10;;;;;;;28.65;28.40;98445.77;107700;1268;69827;-77
2022/10/18 11:45:09;;;;;;;9.90;8.40;;;;;;;29.03;27.80;98440.73;107623;1265;68245;-77
2022/10/18 11:47:53;;;;;;;8.70;7.90;;;;;;;29.27;26.92;98433.91;107741;1270;70044;-77
2022/10/18 11:50:51;;;;;;;8.50;7.60;;;;;;;28.87;27.27;98429.67;107794;1273;58917;-76
2022/10/18 11:53:27;;;;;;;10.60;8.10;;;;;;;29.03;27.55;98422.89;107769;1269;58964;-77
2022/10/18 11:56:26;;;;;;;9.20;7.70;;;;;;;28.69;27.70;98419.33;107501;1269;70639;-77
2022/10/18 11:59:27;;;;;;;10.30;9.10;;;;;;;28.74;27.84;98411.18;107748;1264;69999;-76
2022/10/18 12:02:22;;;;;;;9.00;8.00;;;;;;;28.88;27.37;98406.41;107746;1270;69321;-76
2022/10/18 12:04:55;;;;;;;8.70;7.70;;;;;;;28.98;27.42;98398.98;107723;1269;58986;-76